createdAt,value
2017-12-20T00:00:45.166Z,95373.27
2017-12-20T00:03:12.878Z,95373.78
2017-12-20T00:05:40.600Z,95375.70
2017-12-20T00:08:08.362Z,95377.06
2017-12-20T00:10:36.057Z,95375.16
2017-12-20T00:13:03.757Z,95381.07
2017-12-20T00:15:31.491Z,95387.38
2017-12-20T00:17:59.218Z,95377.02
2017-12-20T00:20:26.969Z,95382.47
2017-12-20T00:22:54.719Z,95383.48
2017-12-20T00:25:22.494Z,95383.86
2017-12-20T00:27:50.272Z,95390.45
2017-12-20T00:30:17.958Z,95389.01
2017-12-20T00:32:45.646Z,95389.72
2017-12-20T00:35:13.387Z,95382.78
2017-12-20T00:37:41.384Z,95381.83
2017-12-20T00:40:09.112Z,95374.27
2017-12-20T00:42:36.845Z,95375.69
2017-12-20T00:45:04.655Z,95376.05
2017-12-20T00:47:32.409Z,95382.64
2017-12-20T00:50:00.156Z,95370.59
2017-12-20T00:52:27.892Z,95374.83
2017-12-20T00:54:55.713Z,95377.08
2017-12-20T00:57:23.406Z,95370.16
2017-12-20T00:59:51.118Z,95375.77
2017-12-20T01:02:18.873Z,95381.25
2017-12-20T01:04:46.584Z,95382.98
2017-12-20T01:07:14.377Z,95388.19
2017-12-20T01:09:42.089Z,95392.25
2017-12-20T01:12:10.009Z,95397.70
2017-12-20T01:14:37.692Z,95403.66
2017-12-20T01:17:05.428Z,95403.79
2017-12-20T01:19:33.158Z,95405.45
2017-12-20T01:22:00.865Z,95413.85
2017-12-20T01:24:28.662Z,95410.39
2017-12-20T01:26:56.326Z,95415.95
2017-12-20T01:29:24.084Z,95421.91
2017-12-20T01:31:51.900Z,95420.33
2017-12-20T01:34:19.593Z,95412.08
2017-12-20T01:36:47.323Z,95410.45
2017-12-20T01:39:15.068Z,95411.84
2017-12-20T01:41:42.766Z,95409.99
2017-12-20T01:44:10.491Z,95410.67
2017-12-20T01:46:38.244Z,95409.05
2017-12-20T01:49:05.947Z,95408.20
2017-12-20T01:51:33.752Z,95409.05
2017-12-20T01:54:01.518Z,95405.12
2017-12-20T01:56:29.283Z,95413.17
2017-12-20T01:58:57.062Z,95414.44
2017-12-20T02:01:24.786Z,95415.33
2017-12-20T02:03:52.522Z,95410.63
2017-12-20T02:06:21.013Z,95415.31
2017-12-20T02:08:48.740Z,95412.58
2017-12-20T02:11:16.523Z,95414.91
2017-12-20T02:13:44.443Z,95419.78
2017-12-20T02:16:12.188Z,95412.89
2017-12-20T02:18:39.885Z,95405.65
2017-12-20T02:21:07.718Z,95408.66
2017-12-20T02:23:35.476Z,95406.56
2017-12-20T02:26:03.426Z,95402.91
2017-12-20T02:28:31.144Z,95404.89
2017-12-20T02:30:58.929Z,95403.39
2017-12-20T02:33:38.377Z,95402.34
2017-12-20T02:36:07.306Z,95400.91
2017-12-20T02:38:37.514Z,95406.11
2017-12-20T02:41:08.793Z,95405.48
2017-12-20T02:43:37.514Z,95399.23
2017-12-20T02:46:05.511Z,95403.69
2017-12-20T02:48:33.309Z,95407.33
2017-12-20T02:51:01.427Z,95408.47
2017-12-20T02:53:29.208Z,95413.30
2017-12-20T02:55:56.942Z,95410.16
2017-12-20T02:58:24.710Z,95413.40
2017-12-20T03:00:52.573Z,95413.99
2017-12-20T03:03:20.371Z,95410.97
2017-12-20T03:05:48.143Z,95423.02
2017-12-20T03:08:15.885Z,95413.88
2017-12-20T03:10:43.595Z,95411.90
2017-12-20T03:13:11.371Z,95409.41
2017-12-20T03:15:39.100Z,95419.14
2017-12-20T03:18:06.899Z,95412.77
2017-12-20T03:20:34.597Z,95417.46
2017-12-20T03:23:02.353Z,95416.12
2017-12-20T03:25:30.098Z,95423.59
2017-12-20T03:27:57.789Z,95421.05
2017-12-20T03:30:25.606Z,95422.10
2017-12-20T03:32:53.336Z,95416.34
2017-12-20T03:35:21.071Z,95421.92
2017-12-20T03:37:48.801Z,95420.76
2017-12-20T03:40:16.495Z,95422.49
2017-12-20T03:42:44.266Z,95418.21
2017-12-20T03:45:11.973Z,95414.50
2017-12-20T03:47:39.727Z,95415.33
2017-12-20T03:50:07.429Z,95415.90
2017-12-20T03:52:35.225Z,95412.72
2017-12-20T03:55:03.054Z,95418.61
2017-12-20T03:57:30.735Z,95419.83
2017-12-20T03:59:58.511Z,95416.80
2017-12-20T04:02:26.290Z,95417.69
2017-12-20T04:04:54.016Z,95415.21
2017-12-20T04:07:21.692Z,95414.78
2017-12-20T04:09:49.465Z,95417.05
2017-12-20T04:12:17.336Z,95414.97
2017-12-20T04:14:45.022Z,95419.84
2017-12-20T04:17:12.735Z,95410.98
2017-12-20T04:19:40.504Z,95408.84
2017-12-20T04:22:08.197Z,95405.55
2017-12-20T04:24:36.094Z,95412.95
2017-12-20T04:27:03.852Z,95408.11
2017-12-20T04:29:31.537Z,95417.78
2017-12-20T04:31:59.273Z,95417.10
2017-12-20T04:34:27.116Z,95415.73
2017-12-20T04:36:54.790Z,95420.88
2017-12-20T04:39:22.499Z,95426.80
2017-12-20T04:41:50.232Z,95421.94
2017-12-20T04:44:17.963Z,95427.94
2017-12-20T04:46:45.627Z,95426.61
2017-12-20T04:49:13.372Z,95425.52
2017-12-20T04:51:41.064Z,95427.48
2017-12-20T04:54:08.788Z,95431.83
2017-12-20T04:56:36.529Z,95435.47
2017-12-20T04:59:04.295Z,95438.68
2017-12-20T05:01:31.994Z,95438.64
2017-12-20T05:03:59.750Z,95447.69
2017-12-20T05:06:27.503Z,95443.30
2017-12-20T05:08:55.238Z,95443.63
2017-12-20T05:11:22.924Z,95448.10
2017-12-20T05:13:50.620Z,95453.60
2017-12-20T05:16:18.424Z,95450.94
2017-12-20T05:18:46.162Z,95454.89
2017-12-20T05:21:13.877Z,95458.07
2017-12-20T05:23:41.741Z,95458.34
2017-12-20T05:26:09.498Z,95466.23
2017-12-20T05:28:37.236Z,95463.39
2017-12-20T05:31:05.090Z,95467.34
2017-12-20T05:33:32.808Z,95470.52
2017-12-20T05:36:00.556Z,95473.88
2017-12-20T05:38:28.299Z,95472.91
2017-12-20T05:40:56.196Z,95475.00
2017-12-20T05:43:24.167Z,95470.26
2017-12-20T05:45:51.884Z,95472.03
2017-12-20T05:48:19.661Z,95467.52
2017-12-20T05:50:47.438Z,95474.44
2017-12-20T05:53:15.125Z,95478.71
2017-12-20T05:55:42.865Z,95480.95
2017-12-20T05:58:10.574Z,95492.31
2017-12-20T06:00:38.329Z,95481.66
2017-12-20T06:03:06.048Z,95486.64
2017-12-20T06:05:33.741Z,95483.64
2017-12-20T06:08:01.417Z,95485.56
2017-12-20T06:10:29.156Z,95486.02
2017-12-20T06:12:56.897Z,95493.80
2017-12-20T06:15:24.576Z,95490.99
2017-12-20T06:17:52.315Z,95491.95
2017-12-20T06:20:20.046Z,95490.44
2017-12-20T06:22:47.814Z,95491.95
2017-12-20T06:25:15.575Z,95493.22
2017-12-20T06:27:43.339Z,95488.03
2017-12-20T06:30:11.064Z,95490.44
2017-12-20T06:32:38.755Z,95490.09
2017-12-20T06:35:06.501Z,95494.59
2017-12-20T06:37:34.241Z,95496.28
2017-12-20T06:40:01.996Z,95503.24
2017-12-20T06:42:29.803Z,95500.28
2017-12-20T06:44:57.550Z,95498.55
2017-12-20T06:47:25.250Z,95500.12
2017-12-20T06:49:52.959Z,95503.28
2017-12-20T06:52:20.635Z,95512.67
2017-12-20T06:54:48.397Z,95517.91
2017-12-20T06:57:16.098Z,95518.06
2017-12-20T06:59:43.836Z,95520.85
2017-12-20T07:02:11.658Z,95518.02
2017-12-20T07:04:39.384Z,95520.78
2017-12-20T07:07:07.118Z,95523.64
2017-12-20T07:09:34.888Z,95526.08
2017-12-20T07:12:02.672Z,95520.92
2017-12-20T07:14:30.394Z,95523.41
2017-12-20T07:16:58.152Z,95524.27
2017-12-20T07:19:25.878Z,95532.44
2017-12-20T07:21:53.639Z,95518.84
2017-12-20T07:24:21.350Z,95524.35
2017-12-20T07:26:49.181Z,95524.04
2017-12-20T07:29:16.987Z,95537.03
2017-12-20T07:31:44.761Z,95538.42
2017-12-20T07:34:12.495Z,95540.64
2017-12-20T07:36:40.454Z,95541.46
2017-12-20T07:39:08.752Z,95538.09
2017-12-20T07:41:36.525Z,95533.52
2017-12-20T07:44:04.455Z,95538.84
2017-12-20T07:46:32.209Z,95552.63
2017-12-20T07:48:59.947Z,95557.70
2017-12-20T07:51:27.633Z,95560.05
2017-12-20T07:53:55.365Z,95565.23
2017-12-20T07:56:23.039Z,95565.12
2017-12-20T07:58:50.876Z,95579.59
2017-12-20T08:01:18.609Z,95576.30
2017-12-20T08:03:46.303Z,95580.75
2017-12-20T08:06:14.044Z,95579.02
2017-12-20T08:08:41.921Z,95580.06
2017-12-20T08:11:09.620Z,95575.59
2017-12-20T08:13:37.378Z,95580.13
2017-12-20T08:16:05.112Z,95586.57
2017-12-20T08:18:32.924Z,95588.37
2017-12-20T08:21:00.668Z,95579.77
2017-12-20T08:23:28.455Z,95578.33
2017-12-20T08:25:56.253Z,95584.22
2017-12-20T08:28:24.833Z,95584.41
2017-12-20T08:30:52.666Z,95583.94
2017-12-20T08:33:20.492Z,95587.48
2017-12-20T08:35:48.224Z,95581.30
2017-12-20T08:38:15.946Z,95586.23
2017-12-20T08:40:43.712Z,95590.76
2017-12-20T08:43:11.461Z,95590.09
2017-12-20T08:45:39.192Z,95594.53
2017-12-20T08:48:06.932Z,95596.13
2017-12-20T08:50:34.637Z,95588.33
2017-12-20T08:53:02.397Z,95590.62
2017-12-20T08:55:30.100Z,95587.47
2017-12-20T08:57:57.860Z,95596.19
2017-12-20T09:00:25.769Z,95595.87
2017-12-20T09:02:53.571Z,95601.19
2017-12-20T09:05:21.321Z,95605.34
2017-12-20T09:07:49.038Z,95604.13
2017-12-20T09:10:16.819Z,95606.11
2017-12-20T09:12:45.316Z,95615.28
2017-12-20T09:15:13.093Z,95610.19
2017-12-20T09:17:40.787Z,95614.06
2017-12-20T09:20:08.644Z,95611.45
2017-12-20T09:22:36.426Z,95616.51
2017-12-20T09:25:04.227Z,95608.72
2017-12-20T09:27:31.936Z,95618.65
2017-12-20T09:29:59.705Z,95611.53
2017-12-20T09:32:27.468Z,95611.41
2017-12-20T09:34:55.224Z,95614.88
2017-12-20T09:37:23.004Z,95611.39
2017-12-20T09:39:50.793Z,95611.40
2017-12-20T09:42:18.530Z,95613.34
2017-12-20T09:44:46.261Z,95616.63
2017-12-20T09:47:13.999Z,95606.39
2017-12-20T09:49:41.672Z,95608.85
2017-12-20T09:52:09.432Z,95601.77
2017-12-20T09:54:37.172Z,95601.81
2017-12-20T09:57:04.949Z,95603.42
2017-12-20T09:59:32.673Z,95606.50
2017-12-20T10:02:00.408Z,95602.38
2017-12-20T10:04:28.154Z,95598.04
2017-12-20T10:06:55.910Z,95597.79
2017-12-20T10:09:23.671Z,95596.78
2017-12-20T10:11:51.470Z,95590.70
2017-12-20T10:14:19.201Z,95591.17
2017-12-20T10:16:46.966Z,95588.42
2017-12-20T10:19:14.683Z,95588.02
2017-12-20T10:21:42.455Z,95582.35
2017-12-20T10:24:10.141Z,95587.03
2017-12-20T10:26:38.392Z,95582.81
2017-12-20T10:29:06.123Z,95581.85
2017-12-20T10:31:33.818Z,95584.72
2017-12-20T10:34:01.586Z,95575.29
2017-12-20T10:36:29.296Z,95570.45
2017-12-20T10:38:57.097Z,95579.70
2017-12-20T10:41:24.830Z,95574.58
2017-12-20T10:43:52.538Z,95566.86
2017-12-20T10:46:21.237Z,95563.57
2017-12-20T10:48:49.009Z,95567.06
2017-12-20T10:51:16.775Z,95562.02
2017-12-20T10:53:44.508Z,95564.03
2017-12-20T10:56:12.301Z,95561.22
2017-12-20T10:58:40.081Z,95557.97
2017-12-20T11:01:07.845Z,95562.31
2017-12-20T11:03:35.635Z,95566.98
2017-12-20T11:06:03.600Z,95564.80
2017-12-20T11:08:31.320Z,95557.44
2017-12-20T11:10:59.187Z,95559.84
2017-12-20T11:13:26.901Z,95559.10
2017-12-20T11:15:55.740Z,95559.17
2017-12-20T11:18:23.430Z,95559.24
2017-12-20T11:20:51.243Z,95553.50
2017-12-20T11:23:18.991Z,95552.03
2017-12-20T11:25:46.729Z,95552.70
2017-12-20T11:28:14.516Z,95542.85
2017-12-20T11:30:42.316Z,95549.38
2017-12-20T11:33:10.109Z,95544.35
2017-12-20T11:35:38.045Z,95545.76
2017-12-20T11:38:05.813Z,95538.03
2017-12-20T11:40:33.593Z,95540.80
2017-12-20T11:43:01.405Z,95542.09
2017-12-20T11:45:29.150Z,95532.52
2017-12-20T11:47:56.965Z,95524.08
2017-12-20T11:50:24.717Z,95522.76
2017-12-20T11:52:52.425Z,95530.05
2017-12-20T11:55:20.164Z,95524.69
2017-12-20T11:57:47.986Z,95518.75
2017-12-20T12:00:15.950Z,95515.47
2017-12-20T12:02:43.679Z,95509.87
2017-12-20T12:05:11.430Z,95506.91
2017-12-20T12:07:39.179Z,95498.30
2017-12-20T12:10:06.872Z,95498.02
2017-12-20T12:12:34.618Z,95495.85
2017-12-20T12:15:02.412Z,95499.16
2017-12-20T12:17:30.172Z,95497.00
2017-12-20T12:19:57.854Z,95496.94
2017-12-20T12:22:25.608Z,95497.70
2017-12-20T12:24:53.341Z,95497.03
2017-12-20T12:27:21.098Z,95497.55
2017-12-20T12:29:48.863Z,95496.39
2017-12-20T12:32:16.564Z,95496.11
2017-12-20T12:34:44.275Z,95504.79
2017-12-20T12:37:12.040Z,95501.19
2017-12-20T12:39:39.813Z,95499.77
2017-12-20T12:42:07.585Z,95500.50
2017-12-20T12:44:35.351Z,95500.27
2017-12-20T12:47:03.039Z,95501.67
2017-12-20T12:49:30.770Z,95500.67
2017-12-20T12:51:58.552Z,95497.40
2017-12-20T12:54:26.360Z,95498.66
2017-12-20T12:56:54.177Z,95505.48
2017-12-20T12:59:22.022Z,95497.84
2017-12-20T13:01:49.763Z,95500.44
2017-12-20T13:04:17.521Z,95505.41
2017-12-20T13:06:45.239Z,95503.98
2017-12-20T13:09:13.254Z,95507.10
2017-12-20T13:11:41.789Z,95503.58
2017-12-20T13:14:09.562Z,95498.70
2017-12-20T13:16:37.345Z,95492.66
2017-12-20T13:19:05.103Z,95485.23
2017-12-20T13:21:32.903Z,95490.45
2017-12-20T13:24:00.626Z,95489.44
2017-12-20T13:26:28.427Z,95485.27
2017-12-20T13:28:56.125Z,95488.14
2017-12-20T13:31:23.878Z,95488.55
2017-12-20T13:33:51.577Z,95490.58
2017-12-20T13:36:19.334Z,95488.12
2017-12-20T13:38:47.043Z,95485.83
2017-12-20T13:41:14.843Z,95482.94
2017-12-20T13:43:42.746Z,95489.85
2017-12-20T13:46:10.528Z,95493.42
2017-12-20T13:48:38.384Z,95496.94
2017-12-20T13:51:06.349Z,95498.69
2017-12-20T13:53:34.084Z,95506.94
2017-12-20T13:56:01.819Z,95504.66
2017-12-20T13:58:29.651Z,95514.33
2017-12-20T14:00:57.417Z,95503.04
2017-12-20T14:03:25.186Z,95502.50
2017-12-20T14:05:52.884Z,95503.63
2017-12-20T14:08:20.616Z,95500.79
2017-12-20T14:10:48.327Z,95500.45
2017-12-20T14:13:16.167Z,95500.85
2017-12-20T14:15:43.945Z,95512.20
2017-12-20T14:18:11.655Z,95514.80
2017-12-20T14:20:39.482Z,95515.84
2017-12-20T14:23:07.225Z,95511.59
2017-12-20T14:25:34.971Z,95516.71
2017-12-20T14:28:02.730Z,95518.67
2017-12-20T14:30:30.480Z,95520.45
2017-12-20T14:32:58.152Z,95514.50
2017-12-20T14:35:25.904Z,95507.20
2017-12-20T14:37:53.807Z,95503.75
2017-12-20T14:40:21.577Z,95502.33
2017-12-20T14:42:49.321Z,95510.69
2017-12-20T14:45:17.036Z,95511.97
2017-12-20T14:47:44.757Z,95501.77
2017-12-20T14:50:12.547Z,95502.11
2017-12-20T14:52:40.458Z,95510.83
2017-12-20T14:55:08.259Z,95507.89
2017-12-20T14:57:36.140Z,95504.75
2017-12-20T15:00:03.904Z,95503.94
2017-12-20T15:02:31.708Z,95499.22
2017-12-20T15:04:59.527Z,95499.23
2017-12-20T15:07:27.358Z,95496.87
2017-12-20T15:09:55.117Z,95502.83
2017-12-20T15:12:22.866Z,95502.30
2017-12-20T15:14:50.610Z,95510.38
2017-12-20T15:17:18.432Z,95507.42
2017-12-20T15:19:46.285Z,95508.98
2017-12-20T15:22:14.019Z,95512.45
2017-12-20T15:24:41.790Z,95513.19
2017-12-20T15:27:09.481Z,95515.38
2017-12-20T15:29:37.228Z,95523.27
2017-12-20T15:32:04.982Z,95529.89
2017-12-20T15:34:32.878Z,95532.39
2017-12-20T15:37:00.679Z,95529.08
2017-12-20T15:39:28.435Z,95526.83
2017-12-20T15:41:56.284Z,95535.44
2017-12-20T15:44:24.007Z,95522.59
2017-12-20T15:46:51.829Z,95529.16
2017-12-20T15:49:19.633Z,95540.17
2017-12-20T15:51:47.349Z,95547.27
2017-12-20T15:54:15.150Z,95544.09
2017-12-20T15:56:42.871Z,95552.16
2017-12-20T15:59:10.637Z,95553.84
2017-12-20T16:01:38.448Z,95559.89
2017-12-20T16:04:07.198Z,95567.16
2017-12-20T16:06:34.998Z,95572.70
2017-12-20T16:09:02.827Z,95571.77
2017-12-20T16:11:30.731Z,95570.72
2017-12-20T16:16:24.096Z,95576.30
2017-12-20T16:18:51.908Z,95570.27
2017-12-20T16:21:19.756Z,95579.97
2017-12-20T16:23:47.600Z,95578.23
2017-12-20T16:26:15.336Z,95583.51
2017-12-20T16:28:43.108Z,95587.83
2017-12-20T16:31:10.894Z,95584.03
2017-12-20T16:33:38.855Z,95584.04
2017-12-20T16:36:06.602Z,95588.92
2017-12-20T16:38:34.500Z,95578.24
2017-12-20T16:41:02.838Z,95579.52
2017-12-20T16:43:30.625Z,95584.22
2017-12-20T16:45:58.416Z,95586.36
2017-12-20T16:48:26.136Z,95583.92
2017-12-20T16:50:53.961Z,95596.35
2017-12-20T16:53:33.349Z,95598.96
2017-12-20T16:56:01.186Z,95604.77
2017-12-20T16:58:28.924Z,95603.49
2017-12-20T17:00:56.714Z,95605.47
2017-12-20T17:03:24.520Z,95613.89
2017-12-20T17:05:52.282Z,95612.20
2017-12-20T17:08:20.460Z,95606.86
2017-12-20T17:10:48.155Z,95598.80
2017-12-20T17:13:15.961Z,95600.48
2017-12-20T17:15:43.713Z,95592.27
2017-12-20T17:18:11.502Z,95582.77
2017-12-20T17:20:39.448Z,95580.67
2017-12-20T17:23:07.237Z,95588.92
2017-12-20T17:25:34.953Z,95584.11
2017-12-20T17:28:02.771Z,95576.12
2017-12-20T17:30:30.789Z,95571.25
2017-12-20T17:32:58.552Z,95574.61
2017-12-20T17:35:26.261Z,95582.02
2017-12-20T17:37:54.050Z,95591.48
2017-12-20T17:40:21.915Z,95591.86
2017-12-20T17:42:50.102Z,95600.63
2017-12-20T17:45:18.032Z,95603.30
2017-12-20T17:47:45.869Z,95603.30
2017-12-20T17:50:14.851Z,95605.77
2017-12-20T17:52:42.648Z,95603.23
2017-12-20T17:55:10.494Z,95609.06
2017-12-20T17:57:38.220Z,95615.22
2017-12-20T18:00:06.043Z,95618.83
2017-12-20T18:02:33.840Z,95616.10
2017-12-20T18:05:01.559Z,95629.45
2017-12-20T18:07:30.122Z,95626.01
2017-12-20T18:09:57.930Z,95628.04
2017-12-20T18:12:25.695Z,95627.92
2017-12-20T18:14:53.467Z,95638.89
2017-12-20T18:17:21.292Z,95641.44
2017-12-20T18:19:49.030Z,95648.76
2017-12-20T18:22:17.122Z,95654.09
2017-12-20T18:24:44.850Z,95652.42
2017-12-20T18:27:12.628Z,95659.91
2017-12-20T18:29:40.462Z,95654.63
2017-12-20T18:32:08.925Z,95658.63
2017-12-20T18:34:36.680Z,95657.06
2017-12-20T18:37:04.530Z,95660.65
2017-12-20T18:39:32.325Z,95663.27
2017-12-20T18:42:01.296Z,95664.66
2017-12-20T18:44:29.190Z,95662.70
2017-12-20T18:46:58.076Z,95665.02
2017-12-20T18:49:25.916Z,95664.14
2017-12-20T18:51:54.572Z,95665.31
2017-12-20T18:54:22.359Z,95668.62
2017-12-20T18:56:50.160Z,95665.44
2017-12-20T18:59:18.884Z,95663.75
2017-12-20T19:01:46.651Z,95658.33
2017-12-20T19:04:14.501Z,95660.27
2017-12-20T19:06:42.290Z,95659.33
2017-12-20T19:09:10.298Z,95657.47
2017-12-20T19:11:39.221Z,95654.63
2017-12-20T19:14:07.155Z,95657.83
2017-12-20T19:16:34.988Z,95659.97
2017-12-20T19:19:04.361Z,95655.84
2017-12-20T19:21:32.165Z,95664.09
2017-12-20T19:23:59.898Z,95665.42
2017-12-20T19:26:27.765Z,95666.53
2017-12-20T19:28:55.620Z,95674.34
2017-12-20T19:31:23.345Z,95665.34
2017-12-20T19:33:51.406Z,95668.94
2017-12-20T19:36:19.191Z,95676.67
2017-12-20T19:38:46.924Z,95670.53
2017-12-20T19:41:14.693Z,95668.66
2017-12-20T19:43:42.451Z,95669.25
2017-12-20T19:46:10.204Z,95674.98
2017-12-20T19:48:38.005Z,95678.93
2017-12-20T19:51:05.751Z,95674.16
2017-12-20T19:53:34.541Z,95680.31
2017-12-20T19:56:02.355Z,95670.36
2017-12-20T19:58:30.190Z,95669.25
2017-12-20T20:00:57.997Z,95666.95
2017-12-20T20:03:25.722Z,95664.66
2017-12-20T20:05:53.508Z,95664.91
2017-12-20T20:08:21.254Z,95666.83
2017-12-20T20:10:48.998Z,95671.49
2017-12-20T20:13:16.743Z,95675.50
2017-12-20T20:15:44.686Z,95669.48
2017-12-20T20:18:13.036Z,95675.21
2017-12-20T20:20:40.754Z,95672.53
2017-12-20T20:23:08.542Z,95675.97
2017-12-20T20:25:36.288Z,95675.27
2017-12-20T20:28:04.389Z,95675.69
2017-12-20T20:30:32.976Z,95673.42
2017-12-20T20:33:00.739Z,95672.80
2017-12-20T20:35:28.517Z,95668.38
2017-12-20T20:37:56.273Z,95666.61
2017-12-20T20:40:23.970Z,95665.98
2017-12-20T20:42:51.841Z,95660.94
2017-12-20T20:45:19.538Z,95655.78
2017-12-20T20:47:47.367Z,95664.31
2017-12-20T20:50:15.129Z,95659.83
2017-12-20T20:52:42.852Z,95661.97
2017-12-20T20:55:11.218Z,95658.66
2017-12-20T20:57:38.978Z,95662.98
2017-12-20T21:00:07.067Z,95655.87
2017-12-20T21:02:34.805Z,95652.81
2017-12-20T21:05:02.512Z,95655.86
2017-12-20T21:07:30.277Z,95658.55
2017-12-20T21:09:58.017Z,95659.03
2017-12-20T21:12:25.730Z,95653.83
2017-12-20T21:14:53.513Z,95651.73
2017-12-20T21:17:22.096Z,95653.98
2017-12-20T21:19:49.887Z,95656.05
2017-12-20T21:22:17.758Z,95656.54
2017-12-20T21:24:45.505Z,95658.48
2017-12-20T21:27:13.304Z,95653.33
2017-12-20T21:29:40.995Z,95651.34
2017-12-20T21:32:08.735Z,95646.19
2017-12-20T21:34:36.495Z,95656.84
2017-12-20T21:37:04.229Z,95654.56
2017-12-20T21:39:32.077Z,95650.70
2017-12-20T21:41:59.828Z,95649.03
2017-12-20T21:44:27.570Z,95647.84
2017-12-20T21:46:55.507Z,95643.27
2017-12-20T21:49:23.357Z,95643.08
2017-12-20T21:51:51.188Z,95647.91
2017-12-20T21:54:19.798Z,95650.52
2017-12-20T21:56:47.612Z,95647.35
2017-12-20T21:59:15.915Z,95651.59
2017-12-20T22:01:44.634Z,95650.63
2017-12-20T22:04:12.510Z,95654.29
2017-12-20T22:06:40.333Z,95656.13
2017-12-20T22:09:08.096Z,95650.81
2017-12-20T22:11:36.009Z,95656.46
2017-12-20T22:14:03.740Z,95657.63
2017-12-20T22:16:31.761Z,95660.38
2017-12-20T22:18:59.457Z,95659.41
2017-12-20T22:21:27.187Z,95662.88
2017-12-20T22:23:54.992Z,95672.80
2017-12-20T22:26:22.717Z,95670.31
2017-12-20T22:28:50.637Z,95675.45
2017-12-20T22:31:18.351Z,95680.28
2017-12-20T22:33:46.165Z,95684.26
2017-12-20T22:36:13.939Z,95688.99
2017-12-20T22:38:41.658Z,95696.20
2017-12-20T22:41:09.407Z,95690.34
2017-12-20T22:43:37.111Z,95697.63
2017-12-20T22:46:05.041Z,95689.73
2017-12-20T22:48:32.937Z,95695.08
2017-12-20T22:51:00.663Z,95692.17
2017-12-20T22:53:28.422Z,95688.20
2017-12-20T22:55:56.169Z,95685.95
2017-12-20T22:58:23.935Z,95681.42
2017-12-20T23:00:51.768Z,95683.92
2017-12-20T23:03:19.628Z,95682.66
2017-12-20T23:05:47.351Z,95678.70
2017-12-20T23:08:15.074Z,95678.70
2017-12-20T23:10:42.821Z,95673.01
2017-12-20T23:13:10.561Z,95675.05
2017-12-20T23:15:38.340Z,95670.77
2017-12-20T23:18:06.054Z,95672.02
2017-12-20T23:20:33.901Z,95678.06
2017-12-20T23:23:01.576Z,95673.67
2017-12-20T23:25:29.278Z,95674.34
2017-12-20T23:27:57.822Z,95678.24
2017-12-20T23:30:25.933Z,95679.59
2017-12-20T23:32:53.723Z,95679.80
2017-12-20T23:35:21.520Z,95684.25
2017-12-20T23:37:49.211Z,95677.13
2017-12-20T23:40:17.030Z,95676.56
2017-12-20T23:42:44.764Z,95685.17
2017-12-20T23:45:12.523Z,95680.33
2017-12-20T23:47:40.241Z,95683.91
2017-12-20T23:50:08.008Z,95678.67
2017-12-20T23:52:35.783Z,95676.84
2017-12-20T23:55:03.570Z,95678.27
2017-12-20T23:57:31.303Z,95673.08
2017-12-20T23:59:59.004Z,95672.25
